METAR Data
IDs: Format: Raw Decoded Include TAF

Data at: 1352 UTC 13 Dec 2019

KVSF 131301Z AUTO 00000KT 10SM BKN023 OVC032 M04/M08 A3049 RMK AO2 T10391083
KVSF 131254Z AUTO 00000KT 10SM SCT023 OVC032 M04/M08 A3049 RMK AO2 SLP335 T10391083
KVSF 131154Z AUTO 00000KT 10SM OVC021 M04/M09 A3050 RMK AO2 SLP339 T10441089 11044 21067 56010
KVSF 131054Z AUTO 00000KT 10SM OVC023 M04/M09 A3051 RMK AO2 SLP341 T10441094
KVSF 130954Z AUTO 00000KT 10SM OVC024 M06/M09 A3052 RMK AO2 SLP344 T10561094
KVSF 130944Z AUTO 16003KT 10SM BKN024 M06/M09 A3052 RMK AO2 T10561094
KVSF 130854Z AUTO 00000KT 10SM CLR M06/M09 A3053 RMK AO2 SLP349 T10561094 58014
KVSF 130754Z AUTO 17003KT 10SM CLR M06/M10 A3055 RMK AO2 SLP355 T10561100
KVSF 130654Z AUTO 00000KT 10SM CLR M06/M09 A3057 RMK AO2 SLP361 T10611094
KVSF 130554Z AUTO 00000KT 10SM CLR M06/M10 A3057 RMK AO2 SLP363 T10611100 11050 21072 56017
KVSF 130454Z AUTO 00000KT 10SM BKN110 M06/M10 A3059 RMK AO2 SLP369 T10561100 410111078
KVSF 130354Z AUTO 00000KT 10SM CLR M07/M10 A3060 RMK AO2 SLP373 T10671100
KVSF 130254Z AUTO 00000KT 10SM CLR M06/M11 A3062 RMK AO2 SLP380 T10611106 56007
KVSF 130154Z AUTO 00000KT 10SM CLR M07/M11 A3063 RMK AO2 SLP383 T10671106
KVSF 130054Z AUTO 00000KT 10SM CLR M06/M10 A3063 RMK AO2 SLP384 T10561100
KVSF 122354Z AUTO 00000KT 10SM CLR M05/M10 A3064 RMK AO2 SLP388 T10501100 11011 21050 50007
KVSF 122254Z AUTO 00000KT 10SM CLR M04/M12 A3064 RMK AO2 SLP389 T10391117
KVSF 122154Z AUTO 00000KT 10SM CLR M04/M13 A3063 RMK AO2 SLP382 T10391128
KVSF 122054Z AUTO 21003KT 10SM CLR M03/M14 A3062 RMK AO2 SLP380 T10281139 56003
KVSF 121954Z AUTO 00000KT 10SM CLR M02/M14 A3063 RMK AO2 SLP382 T10171139
KVSF 121854Z AUTO VRB04KT 10SM CLR M02/M14 A3062 RMK AO2 SLP379 T10221139
KVSF 121754Z AUTO 32008KT 10SM CLR M02/M15 A3063 RMK AO2 SLP382 T10221150 11022 21078 58012
KVSF 121654Z AUTO 28008KT 10SM CLR M03/M14 A3064 RMK AO2 SLP387 T10331144
KVSF 121554Z AUTO 29007G16KT 260V320 10SM CLR M04/M14 A3066 RMK AO2 SLP392 T10391144
KVSF 121454Z AUTO 28010G15KT 10SM CLR M04/M14 A3066 RMK AO2 SLP394 T10441144 51028
KVSF 121354Z AUTO VRB06KT 10SM CLR M06/M14 A3064 RMK AO2 SLP386 T10561144
KVSF 121254Z AUTO VRB04KT 10SM FEW041 M07/M14 A3061 RMK AO2 SLP378 T10721144
KVSF 121154Z AUTO 32004KT 10SM CLR M07/M15 A3058 RMK AO2 SLP366 T10671150 11050 21078 53026
KVSF 121054Z AUTO 27004KT 10SM CLR M07/M15 A3056 RMK AO2 SLP358 T10721150
KVSF 120954Z AUTO 29007KT 270V330 10SM CLR M07/M15 A3052 RMK AO2 SLP346 T10671150
KVSF 120854Z AUTO 31007G19KT 10SM CLR M07/M16 A3050 RMK AO2 SLP339 T10671156 51034
KVSF 120754Z AUTO 28009G17KT 10SM CLR M06/M16 A3048 RMK AO2 SLP330 T10611161
KVSF 120654Z AUTO 29011G22KT 10SM CLR M06/M17 A3045 RMK AO2 PK WND 28026/0611 SLP320 T10561172
KVSF 120554Z AUTO 29010G19KT 10SM CLR M05/M14 A3040 RMK AO2 SLP304 60000 T10501139 11017 21050 51045
KVSF 120454Z AUTO 30011G20KT 260V330 10SM OVC040 M04/M12 A3036 RMK AO2 UPB39E47SNE30 SLP288 P0000 T10391117 400111050
KVSF 120434Z AUTO 30008G16KT 270V330 9SM BKN031 OVC041 M04/M10 A3034 RMK AO2 SNE30 P0000 T10391100
KVSF 120419Z AUTO 28013G20KT 3SM -SN OVC024 M04/M08 A3034 RMK AO2 P0000 T10441083
KVSF 120354Z AUTO 30013G24KT 1SM -SN BKN026 M04/M08 A3032 RMK AO2 PK WND 26026/0338 SNB46 PRESRR SLP276 P0000 T10441078
KVSF 120351Z AUTO 30011G22KT 1 1/2SM -SN BKN028 M04/M09 A3031 RMK AO2 PK WND 26026/0338 SNB46 PRESRR P0000
KVSF 120254Z AUTO 26010G21KT 10SM SCT050 M02/M12 A3027 RMK AO2 SLP258 T10221117 53019
KVSF 120154Z AUTO 27005KT 10SM BKN065 M04/M09 A3024 RMK AO2 SLP250 T10391089